createdAt,value
2019-01-21T00:00:18.246Z,56.70
2019-01-21T00:02:46.774Z,60.85
2019-01-21T00:05:15.226Z,54.50
2019-01-21T00:07:43.675Z,53.38
2019-01-21T00:10:12.292Z,52.62
2019-01-21T00:12:40.807Z,51.58
2019-01-21T00:15:09.896Z,57.13
2019-01-21T00:17:38.361Z,52.38
2019-01-21T00:20:07.543Z,52.85
2019-01-21T00:22:36.019Z,49.05
2019-01-21T00:25:06.276Z,48.90
2019-01-21T00:27:34.819Z,51.63
2019-01-21T00:30:03.359Z,44.77
2019-01-21T00:32:31.823Z,52.67
2019-01-21T00:35:00.358Z,48.92
2019-01-21T00:37:28.900Z,48.10
2019-01-21T00:39:57.436Z,45.40
2019-01-21T00:42:25.958Z,45.73
2019-01-21T00:44:54.420Z,44.70
2019-01-21T00:47:29.593Z,52.13
2019-01-21T00:49:53.047Z,49.45
2019-01-21T00:52:21.498Z,47.23
2019-01-21T00:54:51.068Z,54.88
2019-01-21T00:57:19.782Z,46.90
2019-01-21T00:59:48.264Z,46.10
2019-01-21T01:02:17.088Z,42.88
2019-01-21T01:04:45.560Z,45.28
2019-01-21T01:07:14.309Z,48.30
2019-01-21T01:09:42.789Z,47.08
2019-01-21T01:12:11.236Z,46.92
2019-01-21T01:14:39.921Z,42.78
2019-01-21T01:17:08.364Z,46.80
2019-01-21T01:19:36.836Z,39.05
2019-01-21T01:22:05.354Z,39.38
2019-01-21T01:24:33.817Z,45.10
2019-01-21T01:27:02.276Z,46.23
2019-01-21T01:29:30.805Z,45.17
2019-01-21T01:31:59.270Z,42.00
2019-01-21T01:34:27.738Z,43.10
2019-01-21T01:36:56.203Z,38.67
2019-01-21T01:39:24.677Z,41.50
2019-01-21T01:41:53.130Z,37.85
2019-01-21T01:44:21.726Z,42.50
2019-01-21T01:46:50.349Z,38.00
2019-01-21T01:49:18.928Z,41.42
2019-01-21T01:51:47.464Z,38.10
2019-01-21T01:54:15.928Z,37.30
2019-01-21T01:56:44.444Z,37.23
2019-01-21T01:59:13.447Z,41.18
2019-01-21T02:01:42.199Z,39.03
2019-01-21T02:04:10.729Z,38.30
2019-01-21T02:06:39.205Z,37.70
2019-01-21T02:09:08.189Z,34.80
2019-01-21T02:11:37.105Z,44.67
2019-01-21T02:14:05.797Z,37.33
2019-01-21T02:16:34.264Z,41.05
2019-01-21T02:19:02.801Z,36.77
2019-01-21T02:21:32.980Z,38.20
2019-01-21T02:24:04.600Z,39.38
2019-01-21T02:26:36.256Z,47.65
2019-01-21T02:29:08.180Z,45.52
2019-01-21T02:31:42.440Z,43.78
2019-01-21T02:34:17.076Z,45.78
2019-01-21T02:37:00.524Z,42.53
2019-01-21T02:39:52.745Z,45.20
2019-01-21T02:42:48.868Z,48.78
2019-01-21T02:45:20.469Z,39.42
2019-01-21T02:47:52.046Z,45.30
2019-01-21T02:50:30.969Z,44.18
2019-01-21T02:53:14.518Z,45.67
2019-01-21T02:56:03.563Z,52.20
2019-01-21T02:58:37.993Z,50.10
2019-01-21T03:01:12.371Z,46.95
2019-01-21T03:03:50.165Z,49.20
2019-01-21T03:06:21.700Z,45.20
2019-01-21T03:09:08.339Z,49.08
2019-01-21T03:11:55.333Z,47.85
2019-01-21T03:14:39.523Z,46.55
2019-01-21T03:17:29.577Z,45.28
2019-01-21T03:20:16.388Z,43.35
2019-01-21T03:22:47.985Z,45.28
2019-01-21T03:25:25.747Z,45.20
2019-01-21T03:28:02.831Z,38.35
2019-01-21T03:30:51.267Z,45.83
2019-01-21T03:33:34.918Z,43.78
2019-01-21T03:36:06.577Z,44.25
2019-01-21T03:38:52.551Z,38.78
2019-01-21T03:41:30.072Z,43.75
2019-01-21T03:44:04.513Z,38.67
2019-01-21T03:46:57.050Z,45.88
2019-01-21T03:49:37.555Z,42.93
2019-01-21T03:52:24.488Z,38.40
2019-01-21T03:54:53.771Z,39.65
2019-01-21T03:57:25.375Z,41.20
2019-01-21T04:00:18.430Z,37.30
2019-01-21T04:02:56.005Z,41.77
2019-01-21T04:05:27.625Z,41.70
2019-01-21T04:08:01.953Z,44.35
2019-01-21T04:10:42.282Z,35.43
2019-01-21T04:13:22.693Z,41.68
2019-01-21T04:16:06.322Z,46.55
2019-01-21T04:18:47.060Z,44.73
2019-01-21T04:21:27.777Z,35.05
2019-01-21T04:24:14.621Z,39.92
2019-01-21T04:26:51.950Z,35.78
2019-01-21T04:29:41.732Z,39.55
2019-01-21T04:32:28.800Z,42.88
2019-01-21T04:35:06.108Z,34.80
2019-01-21T04:37:52.802Z,40.88
2019-01-21T04:40:27.212Z,35.45
2019-01-21T04:43:23.232Z,40.05
2019-01-21T04:46:06.568Z,30.35
2019-01-21T04:48:53.236Z,35.80
2019-01-21T04:51:40.175Z,32.20
2019-01-21T04:54:29.886Z,29.07
2019-01-21T04:57:16.717Z,33.38
2019-01-21T05:00:03.464Z,31.82
2019-01-21T05:02:34.993Z,33.33
2019-01-21T05:05:29.087Z,31.05
2019-01-21T05:08:25.809Z,29.87
2019-01-21T05:11:03.160Z,27.93
2019-01-21T05:13:37.636Z,27.65
2019-01-21T05:16:20.677Z,27.50
2019-01-21T05:19:07.016Z,30.72
2019-01-21T05:22:04.298Z,26.50
2019-01-21T05:24:41.854Z,28.25
2019-01-21T05:27:16.226Z,27.15
2019-01-21T05:30:18.003Z,28.20
2019-01-21T05:32:58.332Z,29.50
2019-01-21T05:35:52.117Z,29.18
2019-01-21T05:38:23.660Z,29.35
2019-01-21T05:41:07.177Z,24.98
2019-01-21T05:44:05.531Z,27.07
2019-01-21T05:46:46.042Z,30.45
2019-01-21T05:49:20.390Z,29.98
2019-01-21T05:52:03.391Z,26.97
2019-01-21T05:55:00.520Z,26.93
2019-01-21T05:57:47.700Z,27.13
2019-01-21T06:00:31.200Z,25.70
2019-01-21T06:03:23.686Z,25.48
2019-01-21T06:06:10.003Z,28.80
2019-01-21T06:08:56.852Z,25.37
2019-01-21T06:11:37.409Z,27.10
2019-01-21T06:14:12.051Z,28.40
2019-01-21T06:16:46.440Z,27.05
2019-01-21T06:19:17.987Z,25.17
2019-01-21T06:21:52.465Z,26.97
2019-01-21T06:24:35.868Z,27.13
2019-01-21T06:27:16.354Z,27.85
2019-01-21T06:29:50.757Z,27.25
2019-01-21T06:32:46.428Z,26.68
2019-01-21T06:35:29.693Z,28.32
2019-01-21T06:38:17.425Z,27.90
2019-01-21T06:40:54.668Z,28.57
2019-01-21T06:43:45.516Z,23.87
2019-01-21T06:46:29.102Z,26.68
2019-01-21T06:49:17.232Z,27.00
2019-01-21T06:51:58.076Z,25.15
2019-01-21T06:54:44.958Z,26.62
2019-01-21T06:57:25.613Z,26.85
2019-01-21T07:00:08.944Z,26.23
2019-01-21T07:03:01.356Z,26.45
2019-01-21T07:05:41.599Z,24.07
2019-01-21T07:08:18.815Z,24.52
2019-01-21T07:10:53.307Z,26.10
2019-01-21T07:13:42.867Z,29.72
2019-01-21T07:16:17.080Z,26.82
2019-01-21T07:19:21.863Z,25.72
2019-01-21T07:22:02.213Z,28.45
2019-01-21T07:24:42.523Z,29.37
2019-01-21T07:27:19.801Z,25.90
2019-01-21T07:29:54.288Z,23.52
2019-01-21T07:32:28.315Z,32.28
2019-01-21T07:35:11.971Z,24.47
2019-01-21T07:37:46.080Z,27.22
2019-01-21T07:40:29.868Z,29.35
2019-01-21T07:43:07.228Z,23.02
2019-01-21T07:45:41.454Z,25.12
2019-01-21T07:48:43.966Z,29.85
2019-01-21T07:51:24.335Z,27.82
2019-01-21T07:54:10.758Z,30.62
2019-01-21T07:57:09.452Z,27.95
2019-01-21T07:59:52.900Z,28.77
2019-01-21T08:02:42.506Z,30.68
2019-01-21T08:05:16.780Z,35.40
2019-01-21T08:07:48.357Z,39.85
2019-01-21T08:10:37.140Z,39.30
2019-01-21T08:13:36.956Z,38.90
2019-01-21T08:16:43.224Z,35.45
2019-01-21T08:19:24.294Z,36.60
2019-01-21T08:22:14.236Z,35.33
2019-01-21T08:24:57.083Z,35.23
2019-01-21T08:27:34.353Z,33.28
2019-01-21T08:30:17.748Z,37.45
2019-01-21T08:33:08.749Z,40.78
2019-01-21T08:35:49.467Z,38.55
2019-01-21T08:38:32.992Z,41.85
2019-01-21T08:41:18.845Z,43.95
2019-01-21T08:44:19.569Z,44.15
2019-01-21T08:47:05.677Z,37.38
2019-01-21T08:49:37.225Z,42.78
2019-01-21T08:52:32.846Z,46.15
2019-01-21T08:55:31.592Z,41.60
2019-01-21T08:58:32.115Z,46.00
2019-01-21T09:01:18.725Z,43.90
2019-01-21T09:04:02.586Z,50.88
2019-01-21T09:06:39.965Z,49.40
2019-01-21T09:09:28.116Z,48.87
2019-01-21T09:12:14.932Z,54.42
2019-01-21T09:15:01.443Z,47.85
2019-01-21T09:18:00.164Z,47.23
2019-01-21T09:20:48.388Z,47.95
2019-01-21T09:23:42.451Z,47.83
2019-01-21T09:26:22.576Z,50.63
2019-01-21T09:29:09.016Z,51.20
2019-01-21T09:31:56.855Z,45.05
2019-01-21T09:34:49.969Z,49.53
2019-01-21T09:37:24.108Z,41.45
2019-01-21T09:40:28.878Z,44.95
2019-01-21T09:43:15.467Z,41.77
2019-01-21T09:45:55.750Z,42.67
2019-01-21T09:48:23.129Z,41.18
2019-01-21T09:50:52.221Z,39.90
2019-01-21T09:53:20.828Z,38.13
2019-01-21T09:55:50.922Z,35.35
2019-01-21T09:58:22.522Z,38.42
2019-01-21T10:00:51.034Z,42.23
2019-01-21T10:03:20.425Z,36.58
2019-01-21T10:05:52.321Z,40.45
2019-01-21T10:08:26.777Z,31.57
2019-01-21T10:11:07.456Z,33.40
2019-01-21T10:13:50.312Z,33.05
2019-01-21T10:16:41.392Z,37.67
2019-01-21T10:19:32.350Z,31.45
2019-01-21T10:22:03.892Z,32.40
2019-01-21T10:24:53.732Z,37.35
2019-01-21T10:27:37.258Z,37.28
2019-01-21T10:30:24.037Z,38.45
2019-01-21T10:33:12.350Z,37.85
2019-01-21T10:35:58.941Z,29.63
2019-01-21T10:38:51.128Z,32.33
2019-01-21T10:41:31.484Z,34.23
2019-01-21T10:44:03.021Z,37.23
2019-01-21T10:46:46.443Z,37.58
2019-01-21T10:49:57.096Z,37.30
2019-01-21T10:52:48.060Z,31.48
2019-01-21T10:55:25.557Z,30.30
2019-01-21T10:58:17.991Z,34.83
2019-01-21T11:01:18.263Z,31.95
2019-01-21T11:03:49.809Z,27.93
2019-01-21T11:06:38.020Z,29.30
2019-01-21T11:09:26.676Z,26.48
2019-01-21T11:12:09.812Z,28.57
2019-01-21T11:14:47.355Z,28.62
2019-01-21T11:17:30.925Z,27.62
2019-01-21T11:20:20.742Z,29.27
2019-01-21T11:23:03.903Z,28.23
2019-01-21T11:25:44.222Z,31.40
2019-01-21T11:28:21.529Z,29.37
2019-01-21T11:30:58.683Z,29.72
2019-01-21T11:33:35.967Z,30.68
2019-01-21T11:36:19.086Z,28.60
2019-01-21T11:38:50.616Z,26.73
2019-01-21T11:41:28.166Z,27.52
2019-01-21T11:44:14.767Z,29.70
2019-01-21T11:46:54.963Z,25.88
2019-01-21T11:49:32.237Z,21.45
2019-01-21T11:52:12.040Z,22.32
2019-01-21T11:55:09.308Z,24.10
2019-01-21T11:58:08.392Z,23.35
2019-01-21T12:01:01.441Z,26.75
2019-01-21T12:04:00.539Z,21.23
2019-01-21T12:06:35.122Z,23.33
2019-01-21T12:09:25.925Z,25.20
2019-01-21T12:12:00.368Z,22.60
2019-01-21T12:14:34.703Z,26.80
2019-01-21T12:17:36.224Z,27.83
2019-01-21T12:20:19.134Z,23.47
2019-01-21T12:23:08.744Z,22.83
2019-01-21T12:25:55.080Z,21.27
2019-01-21T12:28:44.568Z,23.50
2019-01-21T12:31:46.661Z,20.33
2019-01-21T12:34:18.201Z,24.30
2019-01-21T12:36:55.114Z,19.60
2019-01-21T12:39:29.390Z,19.57
2019-01-21T12:42:03.809Z,20.63
2019-01-21T12:44:59.648Z,20.10
2019-01-21T12:47:33.906Z,22.17
2019-01-21T12:50:24.103Z,20.97
2019-01-21T12:53:21.603Z,20.23
2019-01-21T12:56:02.193Z,19.63
2019-01-21T12:58:42.533Z,18.83
2019-01-21T13:01:19.596Z,19.90
2019-01-21T13:04:00.080Z,19.17
2019-01-21T13:06:37.724Z,19.80
2019-01-21T13:09:24.384Z,19.03
2019-01-21T13:11:59.102Z,19.17
2019-01-21T13:14:39.172Z,18.27
2019-01-21T13:17:10.703Z,17.90
2019-01-21T13:19:50.861Z,17.63
2019-01-21T13:22:43.559Z,17.43
2019-01-21T13:25:38.984Z,17.13
2019-01-21T13:28:10.561Z,17.67
2019-01-21T13:30:53.864Z,17.93
2019-01-21T13:33:42.204Z,17.10
2019-01-21T13:36:19.405Z,19.13
2019-01-21T13:39:05.319Z,18.47
2019-01-21T13:41:36.835Z,17.73
2019-01-21T13:44:17.498Z,18.07
2019-01-21T13:46:54.763Z,17.17
2019-01-21T13:49:32.175Z,17.30
2019-01-21T13:52:12.554Z,20.80
2019-01-21T13:55:09.676Z,22.40
2019-01-21T13:57:41.339Z,19.40
2019-01-21T14:00:12.926Z,18.03
2019-01-21T14:02:44.497Z,20.23
2019-01-21T14:05:30.876Z,19.67
2019-01-21T14:08:03.498Z,21.60
2019-01-21T14:10:40.720Z,20.93
2019-01-21T14:13:26.547Z,19.07
2019-01-21T14:16:09.560Z,22.83
2019-01-21T14:18:56.232Z,20.13
2019-01-21T14:21:43.096Z,21.13
2019-01-21T14:24:34.150Z,22.07
2019-01-21T14:27:23.863Z,21.47
2019-01-21T14:30:07.597Z,19.40
2019-01-21T14:32:39.167Z,19.87
2019-01-21T14:35:16.571Z,19.80
2019-01-21T14:37:53.896Z,18.23
2019-01-21T14:40:46.197Z,19.53
2019-01-21T14:43:20.630Z,18.43
2019-01-21T14:46:04.272Z,20.80
2019-01-21T14:48:47.411Z,20.53
2019-01-21T14:51:35.466Z,17.47
2019-01-21T14:54:13.304Z,21.03
2019-01-21T14:56:47.813Z,18.77
2019-01-21T14:59:28.874Z,18.50
2019-01-21T15:02:00.803Z,20.87
2019-01-21T15:04:38.712Z,19.13
2019-01-21T15:07:12.853Z,20.27
2019-01-21T15:09:49.634Z,20.83
2019-01-21T15:12:30.499Z,22.77
2019-01-21T15:15:21.727Z,21.80
2019-01-21T15:18:16.245Z,26.00
2019-01-21T15:20:57.642Z,23.37
2019-01-21T15:23:32.261Z,21.93
2019-01-21T15:26:21.948Z,26.43
2019-01-21T15:29:19.195Z,25.87
2019-01-21T15:31:56.853Z,28.00
2019-01-21T15:34:59.075Z,26.47
2019-01-21T15:37:33.186Z,25.13
2019-01-21T15:40:26.120Z,29.83
2019-01-21T15:43:06.783Z,28.07
2019-01-21T15:45:56.281Z,26.97
2019-01-21T15:48:33.689Z,28.53
2019-01-21T15:51:19.779Z,28.60
2019-01-21T15:53:54.100Z,28.33
2019-01-21T15:56:25.657Z,33.05
2019-01-21T15:59:06.420Z,36.17
2019-01-21T16:01:43.929Z,35.10
2019-01-21T16:04:18.199Z,32.00
2019-01-21T16:06:58.724Z,29.85
2019-01-21T16:09:51.356Z,31.45
2019-01-21T16:12:25.456Z,32.23
2019-01-21T16:14:59.726Z,35.35
2019-01-21T16:17:43.284Z,34.48
2019-01-21T16:20:14.810Z,34.85
2019-01-21T16:22:49.218Z,35.25
2019-01-21T16:25:29.369Z,34.92
2019-01-21T16:28:20.606Z,38.83
2019-01-21T16:31:04.005Z,35.95
2019-01-21T16:33:35.885Z,45.70
2019-01-21T16:36:19.342Z,39.80
2019-01-21T16:38:51.391Z,39.67
2019-01-21T16:41:25.580Z,41.30
2019-01-21T16:43:54.120Z,40.98
2019-01-21T16:46:22.628Z,42.45
2019-01-21T16:48:51.236Z,44.63
2019-01-21T16:51:20.462Z,44.33
2019-01-21T16:53:49.381Z,42.20
2019-01-21T16:56:17.940Z,48.02
2019-01-21T16:58:46.520Z,49.98
2019-01-21T17:01:15.046Z,45.00
2019-01-21T17:03:43.607Z,48.38
2019-01-21T17:06:12.243Z,45.90
2019-01-21T17:08:40.829Z,47.40
2019-01-21T17:11:09.317Z,50.78
2019-01-21T17:13:38.082Z,48.10
2019-01-21T17:16:06.755Z,49.05
2019-01-21T17:18:35.192Z,48.42
2019-01-21T17:21:03.852Z,49.40
2019-01-21T17:23:32.317Z,44.60
2019-01-21T17:26:00.769Z,51.10
2019-01-21T17:28:29.452Z,55.90
2019-01-21T17:30:57.991Z,51.83
2019-01-21T17:33:26.648Z,56.15
2019-01-21T17:35:55.089Z,62.50
2019-01-21T17:38:23.618Z,66.85
2019-01-21T17:40:52.305Z,60.33
2019-01-21T17:43:20.862Z,69.65
2019-01-21T17:45:49.320Z,68.92
2019-01-21T17:48:17.792Z,73.33
2019-01-21T17:50:46.460Z,62.83
2019-01-21T17:53:15.086Z,73.05
2019-01-21T17:55:43.699Z,64.25
2019-01-21T17:58:12.203Z,68.25
2019-01-21T18:00:40.777Z,71.00
2019-01-21T18:03:09.207Z,72.15
2019-01-21T18:05:37.669Z,69.42
2019-01-21T18:08:06.117Z,61.73
2019-01-21T18:10:34.656Z,65.92
2019-01-21T18:13:03.309Z,63.23
2019-01-21T18:15:32.000Z,66.75
2019-01-21T18:18:00.649Z,59.77
2019-01-21T18:20:29.259Z,68.95
2019-01-21T18:22:57.776Z,62.03
2019-01-21T18:25:26.370Z,62.93
2019-01-21T18:27:54.912Z,58.78
2019-01-21T18:30:24.629Z,54.50
2019-01-21T18:32:53.200Z,57.62
2019-01-21T18:35:21.985Z,54.98
2019-01-21T18:37:50.524Z,55.03
2019-01-21T18:40:21.054Z,52.10
2019-01-21T18:42:50.253Z,49.13
2019-01-21T18:45:23.969Z,52.62
2019-01-21T18:47:52.432Z,67.12
2019-01-21T18:50:20.979Z,63.83
2019-01-21T18:52:50.516Z,58.65
2019-01-21T18:55:19.121Z,52.78
2019-01-21T18:57:47.746Z,52.83
2019-01-21T19:00:21.821Z,51.25
2019-01-21T19:02:50.604Z,55.48
2019-01-21T19:05:19.344Z,57.30
2019-01-21T19:07:47.948Z,52.85
2019-01-21T19:10:18.395Z,53.55
2019-01-21T19:12:47.000Z,70.08
2019-01-21T19:15:22.716Z,46.63
2019-01-21T19:17:51.222Z,54.27
2019-01-21T19:20:20.006Z,59.53
2019-01-21T19:22:48.563Z,57.25
2019-01-21T19:25:17.386Z,65.85
2019-01-21T19:27:46.107Z,50.50
2019-01-21T19:30:17.694Z,54.10
2019-01-21T19:32:46.642Z,51.05
2019-01-21T19:35:17.985Z,48.23
2019-01-21T19:37:46.632Z,52.10
2019-01-21T19:40:18.037Z,50.52
2019-01-21T19:42:46.684Z,48.20
2019-01-21T19:45:15.539Z,50.10
2019-01-21T19:47:44.103Z,50.45
2019-01-21T19:50:16.167Z,49.63
2019-01-21T19:52:44.684Z,45.70
2019-01-21T19:55:28.193Z,40.85
2019-01-21T19:57:57.414Z,50.00
2019-01-21T20:00:26.424Z,43.40
2019-01-21T20:02:55.047Z,44.10
2019-01-21T20:05:23.526Z,40.05
2019-01-21T20:07:52.145Z,43.65
2019-01-21T20:10:23.877Z,43.15
2019-01-21T20:12:52.551Z,49.23
2019-01-21T20:15:21.273Z,42.95
2019-01-21T20:17:49.897Z,42.73
2019-01-21T20:20:24.505Z,38.55
2019-01-21T20:22:57.469Z,35.48
2019-01-21T20:25:23.176Z,36.77
2019-01-21T20:27:51.740Z,37.13
2019-01-21T20:30:22.904Z,34.53
2019-01-21T20:32:53.562Z,34.03
2019-01-21T20:35:22.253Z,38.10
2019-01-21T20:37:50.894Z,40.90
2019-01-21T20:40:22.257Z,35.33
2019-01-21T20:42:51.003Z,42.83
2019-01-21T20:45:19.737Z,36.63
2019-01-21T20:47:48.437Z,39.78
2019-01-21T20:50:19.553Z,42.03
2019-01-21T20:52:48.022Z,39.65
2019-01-21T20:55:17.530Z,39.60
2019-01-21T20:57:46.243Z,40.83
2019-01-21T21:00:26.284Z,38.45
2019-01-21T21:02:55.883Z,44.58
2019-01-21T21:05:24.682Z,35.23
2019-01-21T21:07:53.331Z,32.95
2019-01-21T21:10:22.021Z,39.40
2019-01-21T21:12:50.573Z,38.53
2019-01-21T21:15:25.368Z,33.95
2019-01-21T21:17:53.929Z,31.52
2019-01-21T21:20:22.452Z,40.40
2019-01-21T21:22:51.078Z,37.42
2019-01-21T21:25:20.433Z,42.40
2019-01-21T21:27:48.992Z,47.33
2019-01-21T21:30:26.474Z,42.73
2019-01-21T21:32:55.019Z,41.02
2019-01-21T21:35:23.924Z,30.62
2019-01-21T21:37:52.473Z,30.90
2019-01-21T21:40:22.625Z,34.05
2019-01-21T21:42:51.357Z,33.42
2019-01-21T21:45:22.235Z,36.93
2019-01-21T21:47:51.156Z,33.70
2019-01-21T21:50:25.349Z,33.67
2019-01-21T21:52:53.917Z,37.67
2019-01-21T21:55:22.436Z,37.35
2019-01-21T21:57:50.980Z,34.88
2019-01-21T22:00:22.048Z,39.88
2019-01-21T22:02:50.657Z,32.95
2019-01-21T22:05:19.940Z,35.45
2019-01-21T22:07:48.645Z,36.95
2019-01-21T22:10:23.088Z,33.23
2019-01-21T22:12:52.036Z,26.27
2019-01-21T22:15:22.189Z,28.30
2019-01-21T22:17:50.742Z,34.35
2019-01-21T22:20:21.435Z,30.70
2019-01-21T22:22:50.047Z,31.57
2019-01-21T22:25:19.038Z,29.98
2019-01-21T22:27:47.557Z,30.17
2019-01-21T22:30:24.309Z,33.45
2019-01-21T22:32:52.763Z,34.70
2019-01-21T22:35:21.365Z,30.90
2019-01-21T22:37:49.984Z,29.05
2019-01-21T22:40:20.273Z,30.05
2019-01-21T22:42:48.810Z,29.72
2019-01-21T22:45:18.673Z,35.13
2019-01-21T22:47:47.396Z,25.15
2019-01-21T22:50:17.250Z,25.43
2019-01-21T22:52:45.835Z,24.30
2019-01-21T22:55:15.646Z,26.85
2019-01-21T22:57:44.305Z,22.52
2019-01-21T23:00:21.380Z,24.02
2019-01-21T23:02:49.914Z,21.42
2019-01-21T23:05:18.483Z,17.23
2019-01-21T23:07:47.009Z,20.40
2019-01-21T23:10:15.617Z,20.40
2019-01-21T23:12:44.132Z,16.12
2019-01-21T23:15:13.111Z,16.27
2019-01-21T23:17:41.727Z,13.68
2019-01-21T23:20:11.397Z,11.22
2019-01-21T23:22:39.848Z,13.83
2019-01-21T23:25:08.827Z,13.90
2019-01-21T23:27:37.646Z,11.05
2019-01-21T23:30:11.888Z,11.30
2019-01-21T23:32:40.415Z,10.18
2019-01-21T23:35:08.943Z,7.78
2019-01-21T23:37:37.535Z,16.00
2019-01-21T23:40:09.237Z,8.13
2019-01-21T23:42:37.686Z,7.55
2019-01-21T23:45:08.602Z,9.18
2019-01-21T23:47:37.107Z,8.10
2019-01-21T23:50:11.566Z,12.58
2019-01-21T23:52:40.541Z,11.03
2019-01-21T23:55:10.940Z,9.20
2019-01-21T23:57:39.549Z,7.00
